KIAB/IAB METAR and TAF weather

Enter ICAO airport designator
Station Type Date Time Source
KIAB METAR 2018/12/11 17:56 UTC NOAA

KIAB 111756Z AUTO 22016G21KT 10SM CLR 10/01 A2998 RMK AO2 SLP163 T00950007 10096 21015 58031 $


Station Type Date Time Source
KIAB Decoded METAR 2018/12/11 17:56 UTC NOAA

McConnell Air Force Base, KS, United States (KIAB) 37-37N 097-16W
Dec 11, 2018 - 12:56 PM EST / 2018.12.11 1756 UTC
Wind: from the SW (220 degrees) at 18 MPH (16 KT) gusting to 24 MPH (21 KT):0
Visibility: 10 mile(s):0
Sky conditions: clear
Temperature: 49.1 F (9.5 C)
Dew Point: 33.3 F (0.7 C)
Relative Humidity: 54%
Pressure (altimeter): 29.98 in. Hg (1015 hPa)
Pressure tendency: 0.09 inches (3.1 hPa) lower than three hours ago
ob: KIAB 111756Z AUTO 22016G21KT 10SM CLR 10/01 A2998 RMK AO2 SLP163 T00950007 10096 21015 58031
cycle: 18

Station Type Date Time Source
KIAB TAF 2018/12/11 10:06 UTC NOAA

TAF KIAB 111000Z 1110/1216 22009KT 9999 SKC QNH3002INS
BECMG 1117/1118 20015G25KT 9999 BKN180 QNH2993INS
BECMG 1121/1122 28009KT 9999 BKN180 QNH2999INS
BECMG 1204/1205 VRB06KT 9999 SCT200 QNH2991INS TX09/1121Z TNM05/1112Z


Example: see airport list